sensor_id;sensor_type;location;lat;lon;timestamp;P1;durP1;ratioP1;P2;durP2;ratioP2
21611;SDS011;47005;52.292;13.452;2024-03-08T00:01:15;19.77;;;10.93;;
21611;SDS011;47005;52.292;13.452;2024-03-08T00:03:41;21.17;;;10.70;;
21611;SDS011;47005;52.292;13.452;2024-03-08T00:06:07;20.03;;;11.63;;
21611;SDS011;47005;52.292;13.452;2024-03-08T00:08:33;21.63;;;12.20;;
21611;SDS011;47005;52.292;13.452;2024-03-08T00:10:58;17.33;;;10.93;;
21611;SDS011;47005;52.292;13.452;2024-03-08T00:13:24;21.57;;;12.43;;
21611;SDS011;47005;52.292;13.452;2024-03-08T00:15:50;20.80;;;10.23;;
21611;SDS011;47005;52.292;13.452;2024-03-08T00:18:16;14.90;;;9.80;;
21611;SDS011;47005;52.292;13.452;2024-03-08T00:20:41;20.10;;;11.80;;
21611;SDS011;47005;52.292;13.452;2024-03-08T00:23:08;17.73;;;10.17;;
21611;SDS011;47005;52.292;13.452;2024-03-08T00:25:35;18.63;;;10.67;;
21611;SDS011;47005;52.292;13.452;2024-03-08T00:28:01;16.90;;;9.77;;
21611;SDS011;47005;52.292;13.452;2024-03-08T00:30:27;22.77;;;12.53;;
21611;SDS011;47005;52.292;13.452;2024-03-08T00:32:52;22.63;;;12.30;;
21611;SDS011;47005;52.292;13.452;2024-03-08T00:35:18;18.13;;;10.47;;
21611;SDS011;47005;52.292;13.452;2024-03-08T00:37:44;24.97;;;12.70;;
21611;SDS011;47005;52.292;13.452;2024-03-08T00:40:12;21.53;;;11.17;;
21611;SDS011;47005;52.292;13.452;2024-03-08T00:42:38;19.83;;;11.43;;
21611;SDS011;47005;52.292;13.452;2024-03-08T00:45:05;20.67;;;12.20;;
21611;SDS011;47005;52.292;13.452;2024-03-08T00:47:30;20.97;;;11.13;;
21611;SDS011;47005;52.292;13.452;2024-03-08T00:49:56;17.77;;;11.27;;
21611;SDS011;47005;52.292;13.452;2024-03-08T00:52:22;20.10;;;11.07;;
21611;SDS011;47005;52.292;13.452;2024-03-08T00:54:49;21.93;;;12.90;;
21611;SDS011;47005;52.292;13.452;2024-03-08T00:57:14;21.47;;;12.93;;
21611;SDS011;47005;52.292;13.452;2024-03-08T00:59:40;20.43;;;12.73;;
21611;SDS011;47005;52.292;13.452;2024-03-08T01:02:06;18.57;;;12.23;;
21611;SDS011;47005;52.292;13.452;2024-03-08T01:04:33;24.77;;;12.73;;
21611;SDS011;47005;52.292;13.452;2024-03-08T01:06:59;18.73;;;11.20;;
21611;SDS011;47005;52.292;13.452;2024-03-08T01:09:25;19.83;;;10.53;;
21611;SDS011;47005;52.292;13.452;2024-03-08T01:11:52;21.87;;;13.03;;
21611;SDS011;47005;52.292;13.452;2024-03-08T01:14:19;23.73;;;11.03;;
21611;SDS011;47005;52.292;13.452;2024-03-08T01:16:47;18.03;;;10.27;;
21611;SDS011;47005;52.292;13.452;2024-03-08T01:19:13;22.17;;;11.10;;
21611;SDS011;47005;52.292;13.452;2024-03-08T01:21:40;17.23;;;10.47;;
21611;SDS011;47005;52.292;13.452;2024-03-08T01:24:06;22.77;;;11.13;;
21611;SDS011;47005;52.292;13.452;2024-03-08T01:26:32;21.53;;;12.60;;
21611;SDS011;47005;52.292;13.452;2024-03-08T01:28:59;19.73;;;10.57;;
21611;SDS011;47005;52.292;13.452;2024-03-08T01:31:25;20.97;;;11.23;;
21611;SDS011;47005;52.292;13.452;2024-03-08T01:33:51;23.60;;;12.50;;
21611;SDS011;47005;52.292;13.452;2024-03-08T01:36:16;23.57;;;12.37;;
21611;SDS011;47005;52.292;13.452;2024-03-08T01:38:44;22.63;;;13.37;;
21611;SDS011;47005;52.292;13.452;2024-03-08T01:41:10;14.27;;;9.10;;
21611;SDS011;47005;52.292;13.452;2024-03-08T01:43:37;17.60;;;10.97;;
21611;SDS011;47005;52.292;13.452;2024-03-08T01:46:03;26.67;;;13.87;;
21611;SDS011;47005;52.292;13.452;2024-03-08T01:48:30;22.10;;;12.60;;
21611;SDS011;47005;52.292;13.452;2024-03-08T01:50:57;21.10;;;12.77;;
21611;SDS011;47005;52.292;13.452;2024-03-08T01:53:23;15.47;;;9.93;;
21611;SDS011;47005;52.292;13.452;2024-03-08T01:55:52;21.60;;;11.10;;
21611;SDS011;47005;52.292;13.452;2024-03-08T01:58:21;18.53;;;10.73;;
21611;SDS011;47005;52.292;13.452;2024-03-08T02:00:48;23.07;;;11.17;;
21611;SDS011;47005;52.292;13.452;2024-03-08T02:03:14;16.80;;;10.63;;
21611;SDS011;47005;52.292;13.452;2024-03-08T02:05:41;22.30;;;10.37;;
21611;SDS011;47005;52.292;13.452;2024-03-08T02:08:07;20.83;;;12.07;;
21611;SDS011;47005;52.292;13.452;2024-03-08T02:10:37;17.90;;;10.67;;
21611;SDS011;47005;52.292;13.452;2024-03-08T02:13:04;21.60;;;11.87;;
21611;SDS011;47005;52.292;13.452;2024-03-08T02:18:20;17.33;;;10.70;;
21611;SDS011;47005;52.292;13.452;2024-03-08T02:20:47;17.53;;;10.20;;
21611;SDS011;47005;52.292;13.452;2024-03-08T02:23:17;20.63;;;10.80;;
21611;SDS011;47005;52.292;13.452;2024-03-08T02:25:47;20.87;;;10.17;;
21611;SDS011;47005;52.292;13.452;2024-03-08T02:28:13;22.53;;;11.20;;
21611;SDS011;47005;52.292;13.452;2024-03-08T02:30:39;18.50;;;11.87;;
21611;SDS011;47005;52.292;13.452;2024-03-08T02:33:05;25.37;;;12.20;;
21611;SDS011;47005;52.292;13.452;2024-03-08T02:35:32;22.53;;;10.23;;
21611;SDS011;47005;52.292;13.452;2024-03-08T02:37:59;20.03;;;11.57;;
21611;SDS011;47005;52.292;13.452;2024-03-08T02:40:25;20.50;;;11.27;;
21611;SDS011;47005;52.292;13.452;2024-03-08T02:42:50;17.60;;;11.00;;
21611;SDS011;47005;52.292;13.452;2024-03-08T02:45:16;26.30;;;12.47;;
21611;SDS011;47005;52.292;13.452;2024-03-08T02:47:42;18.77;;;10.97;;
21611;SDS011;47005;52.292;13.452;2024-03-08T02:50:08;23.20;;;10.60;;
21611;SDS011;47005;52.292;13.452;2024-03-08T02:52:34;21.30;;;9.77;;
21611;SDS011;47005;52.292;13.452;2024-03-08T02:55:00;17.60;;;9.77;;
21611;SDS011;47005;52.292;13.452;2024-03-08T02:57:26;18.03;;;10.97;;
21611;SDS011;47005;52.292;13.452;2024-03-08T02:59:53;17.20;;;8.97;;
21611;SDS011;47005;52.292;13.452;2024-03-08T03:02:19;12.40;;;8.20;;
21611;SDS011;47005;52.292;13.452;2024-03-08T03:04:45;18.53;;;10.33;;
21611;SDS011;47005;52.292;13.452;2024-03-08T03:07:10;23.87;;;10.37;;
21611;SDS011;47005;52.292;13.452;2024-03-08T03:09:36;18.37;;;9.57;;
21611;SDS011;47005;52.292;13.452;2024-03-08T03:12:02;18.13;;;9.77;;
21611;SDS011;47005;52.292;13.452;2024-03-08T03:14:28;21.63;;;9.90;;
21611;SDS011;47005;52.292;13.452;2024-03-08T03:16:53;16.90;;;10.17;;
21611;SDS011;47005;52.292;13.452;2024-03-08T03:19:19;14.10;;;7.97;;
21611;SDS011;47005;52.292;13.452;2024-03-08T03:21:45;19.33;;;9.77;;
21611;SDS011;47005;52.292;13.452;2024-03-08T03:24:12;16.23;;;8.83;;
21611;SDS011;47005;52.292;13.452;2024-03-08T03:26:41;18.83;;;10.57;;
21611;SDS011;47005;52.292;13.452;2024-03-08T03:29:08;24.33;;;11.10;;
21611;SDS011;47005;52.292;13.452;2024-03-08T03:31:34;19.63;;;10.93;;
21611;SDS011;47005;52.292;13.452;2024-03-08T03:34:01;14.37;;;9.93;;
21611;SDS011;47005;52.292;13.452;2024-03-08T03:36:29;14.97;;;8.97;;
21611;SDS011;47005;52.292;13.452;2024-03-08T03:38:55;17.90;;;9.50;;
21611;SDS011;47005;52.292;13.452;2024-03-08T03:41:35;14.90;;;8.43;;
21611;SDS011;47005;52.292;13.452;2024-03-08T03:44:01;17.97;;;9.17;;
21611;SDS011;47005;52.292;13.452;2024-03-08T03:46:27;17.00;;;9.97;;
21611;SDS011;47005;52.292;13.452;2024-03-08T03:48:56;22.23;;;10.30;;
21611;SDS011;47005;52.292;13.452;2024-03-08T03:51:21;16.13;;;9.00;;
21611;SDS011;47005;52.292;13.452;2024-03-08T03:53:47;22.43;;;9.80;;
21611;SDS011;47005;52.292;13.452;2024-03-08T03:56:13;12.77;;;8.47;;
21611;SDS011;47005;52.292;13.452;2024-03-08T03:58:39;15.33;;;10.40;;
21611;SDS011;47005;52.292;13.452;2024-03-08T04:01:05;17.87;;;10.03;;
21611;SDS011;47005;52.292;13.452;2024-03-08T04:03:30;17.57;;;10.13;;
21611;SDS011;47005;52.292;13.452;2024-03-08T04:05:56;17.63;;;11.87;;
21611;SDS011;47005;52.292;13.452;2024-03-08T04:08:22;23.07;;;11.03;;
21611;SDS011;47005;52.292;13.452;2024-03-08T04:10:49;17.27;;;9.07;;
21611;SDS011;47005;52.292;13.452;2024-03-08T04:13:16;16.53;;;8.50;;
21611;SDS011;47005;52.292;13.452;2024-03-08T04:15:41;17.10;;;9.80;;
21611;SDS011;47005;52.292;13.452;2024-03-08T04:18:10;23.07;;;11.77;;
21611;SDS011;47005;52.292;13.452;2024-03-08T04:20:36;20.20;;;10.60;;
21611;SDS011;47005;52.292;13.452;2024-03-08T04:23:04;25.70;;;12.33;;
21611;SDS011;47005;52.292;13.452;2024-03-08T04:25:29;15.03;;;8.70;;
21611;SDS011;47005;52.292;13.452;2024-03-08T04:27:55;22.93;;;11.63;;
21611;SDS011;47005;52.292;13.452;2024-03-08T04:30:21;21.73;;;10.40;;
21611;SDS011;47005;52.292;13.452;2024-03-08T04:32:47;18.57;;;10.47;;
21611;SDS011;47005;52.292;13.452;2024-03-08T04:35:12;18.90;;;12.47;;
21611;SDS011;47005;52.292;13.452;2024-03-08T04:37:39;19.93;;;12.07;;
21611;SDS011;47005;52.292;13.452;2024-03-08T04:40:05;24.17;;;12.00;;
21611;SDS011;47005;52.292;13.452;2024-03-08T04:42:31;19.87;;;10.10;;
21611;SDS011;47005;52.292;13.452;2024-03-08T04:45:00;22.10;;;11.97;;
21611;SDS011;47005;52.292;13.452;2024-03-08T04:47:26;20.53;;;11.57;;
21611;SDS011;47005;52.292;13.452;2024-03-08T04:49:52;22.67;;;12.13;;
21611;SDS011;47005;52.292;13.452;2024-03-08T04:52:18;32.73;;;12.17;;
21611;SDS011;47005;52.292;13.452;2024-03-08T04:54:43;22.27;;;11.23;;
21611;SDS011;47005;52.292;13.452;2024-03-08T04:57:12;21.70;;;11.43;;
21611;SDS011;47005;52.292;13.452;2024-03-08T04:59:38;20.87;;;10.50;;
21611;SDS011;47005;52.292;13.452;2024-03-08T05:02:03;22.27;;;12.63;;
21611;SDS011;47005;52.292;13.452;2024-03-08T05:04:29;23.93;;;12.03;;
21611;SDS011;47005;52.292;13.452;2024-03-08T05:06:55;18.20;;;12.07;;
21611;SDS011;47005;52.292;13.452;2024-03-08T05:09:20;29.07;;;13.83;;
21611;SDS011;47005;52.292;13.452;2024-03-08T05:11:46;22.73;;;11.23;;
21611;SDS011;47005;52.292;13.452;2024-03-08T05:14:12;29.43;;;12.23;;
21611;SDS011;47005;52.292;13.452;2024-03-08T05:16:44;21.50;;;12.17;;
21611;SDS011;47005;52.292;13.452;2024-03-08T05:19:17;27.47;;;14.07;;
21611;SDS011;47005;52.292;13.452;2024-03-08T05:21:49;21.63;;;12.30;;
21611;SDS011;47005;52.292;13.452;2024-03-08T05:24:15;21.03;;;12.10;;
21611;SDS011;47005;52.292;13.452;2024-03-08T05:26:41;22.17;;;12.60;;
21611;SDS011;47005;52.292;13.452;2024-03-08T05:29:10;31.13;;;13.67;;
21611;SDS011;47005;52.292;13.452;2024-03-08T05:31:49;19.43;;;11.53;;
21611;SDS011;47005;52.292;13.452;2024-03-08T05:34:17;21.50;;;10.73;;
21611;SDS011;47005;52.292;13.452;2024-03-08T05:36:44;26.07;;;12.77;;
21611;SDS011;47005;52.292;13.452;2024-03-08T05:39:12;20.83;;;12.73;;
21611;SDS011;47005;52.292;13.452;2024-03-08T05:41:38;24.53;;;12.80;;
21611;SDS011;47005;52.292;13.452;2024-03-08T05:44:05;26.10;;;13.50;;
21611;SDS011;47005;52.292;13.452;2024-03-08T05:46:31;27.53;;;12.73;;
21611;SDS011;47005;52.292;13.452;2024-03-08T05:48:56;21.80;;;12.67;;
21611;SDS011;47005;52.292;13.452;2024-03-08T05:51:24;21.47;;;12.07;;
21611;SDS011;47005;52.292;13.452;2024-03-08T05:53:52;18.70;;;10.47;;
21611;SDS011;47005;52.292;13.452;2024-03-08T05:56:18;19.77;;;11.87;;
21611;SDS011;47005;52.292;13.452;2024-03-08T05:58:44;21.07;;;10.80;;
21611;SDS011;47005;52.292;13.452;2024-03-08T06:01:10;23.07;;;12.07;;
21611;SDS011;47005;52.292;13.452;2024-03-08T06:03:37;28.33;;;13.53;;
21611;SDS011;47005;52.292;13.452;2024-03-08T06:06:10;30.80;;;14.03;;
21611;SDS011;47005;52.292;13.452;2024-03-08T06:08:38;23.70;;;13.77;;
21611;SDS011;47005;52.292;13.452;2024-03-08T06:11:04;23.67;;;12.60;;
21611;SDS011;47005;52.292;13.452;2024-03-08T06:13:31;32.83;;;13.73;;
21611;SDS011;47005;52.292;13.452;2024-03-08T06:15:58;22.90;;;13.87;;
21611;SDS011;47005;52.292;13.452;2024-03-08T06:18:25;21.63;;;11.10;;
21611;SDS011;47005;52.292;13.452;2024-03-08T06:20:51;18.87;;;10.30;;
21611;SDS011;47005;52.292;13.452;2024-03-08T06:23:17;21.67;;;11.93;;
21611;SDS011;47005;52.292;13.452;2024-03-08T06:25:46;24.53;;;11.60;;
21611;SDS011;47005;52.292;13.452;2024-03-08T06:28:11;19.03;;;11.80;;
21611;SDS011;47005;52.292;13.452;2024-03-08T06:30:39;20.40;;;12.67;;
21611;SDS011;47005;52.292;13.452;2024-03-08T06:33:05;21.07;;;11.87;;
21611;SDS011;47005;52.292;13.452;2024-03-08T06:35:30;24.27;;;13.13;;
21611;SDS011;47005;52.292;13.452;2024-03-08T06:37:57;23.00;;;12.30;;
21611;SDS011;47005;52.292;13.452;2024-03-08T06:40:23;24.27;;;12.90;;
21611;SDS011;47005;52.292;13.452;2024-03-08T06:42:49;24.23;;;12.57;;
21611;SDS011;47005;52.292;13.452;2024-03-08T06:45:17;20.33;;;11.47;;
21611;SDS011;47005;52.292;13.452;2024-03-08T06:47:45;30.37;;;13.50;;
21611;SDS011;47005;52.292;13.452;2024-03-08T06:50:11;22.37;;;10.73;;
21611;SDS011;47005;52.292;13.452;2024-03-08T06:52:37;22.43;;;12.10;;
21611;SDS011;47005;52.292;13.452;2024-03-08T06:55:04;21.10;;;11.23;;
21611;SDS011;47005;52.292;13.452;2024-03-08T06:57:30;21.40;;;13.20;;
21611;SDS011;47005;52.292;13.452;2024-03-08T06:59:56;21.90;;;12.23;;
21611;SDS011;47005;52.292;13.452;2024-03-08T07:02:22;28.50;;;14.80;;
21611;SDS011;47005;52.292;13.452;2024-03-08T07:04:49;24.13;;;13.23;;
21611;SDS011;47005;52.292;13.452;2024-03-08T07:07:15;19.17;;;11.40;;
21611;SDS011;47005;52.292;13.452;2024-03-08T07:09:44;26.07;;;13.73;;
21611;SDS011;47005;52.292;13.452;2024-03-08T07:12:10;24.60;;;12.27;;
21611;SDS011;47005;52.292;13.452;2024-03-08T07:14:38;23.10;;;11.60;;
21611;SDS011;47005;52.292;13.452;2024-03-08T07:17:06;18.33;;;10.40;;
21611;SDS011;47005;52.292;13.452;2024-03-08T07:19:34;25.80;;;13.10;;
21611;SDS011;47005;52.292;13.452;2024-03-08T07:21:59;26.30;;;11.63;;
21611;SDS011;47005;52.292;13.452;2024-03-08T07:24:25;21.90;;;13.57;;
21611;SDS011;47005;52.292;13.452;2024-03-08T07:27:04;22.87;;;11.57;;
21611;SDS011;47005;52.292;13.452;2024-03-08T07:29:30;20.40;;;11.00;;
21611;SDS011;47005;52.292;13.452;2024-03-08T07:31:56;27.47;;;13.23;;
21611;SDS011;47005;52.292;13.452;2024-03-08T07:34:28;21.03;;;11.90;;
21611;SDS011;47005;52.292;13.452;2024-03-08T07:36:57;22.20;;;11.10;;
21611;SDS011;47005;52.292;13.452;2024-03-08T07:39:23;31.50;;;14.90;;
21611;SDS011;47005;52.292;13.452;2024-03-08T07:41:48;24.80;;;14.67;;
21611;SDS011;47005;52.292;13.452;2024-03-08T07:44:17;27.93;;;14.57;;
21611;SDS011;47005;52.292;13.452;2024-03-08T07:46:43;21.57;;;14.63;;
21611;SDS011;47005;52.292;13.452;2024-03-08T07:49:09;26.90;;;14.50;;
21611;SDS011;47005;52.292;13.452;2024-03-08T07:51:37;27.30;;;15.47;;
21611;SDS011;47005;52.292;13.452;2024-03-08T07:54:03;24.57;;;14.27;;
21611;SDS011;47005;52.292;13.452;2024-03-08T07:56:29;24.60;;;14.17;;
21611;SDS011;47005;52.292;13.452;2024-03-08T07:58:55;17.33;;;10.60;;
21611;SDS011;47005;52.292;13.452;2024-03-08T08:01:21;25.97;;;13.53;;
21611;SDS011;47005;52.292;13.452;2024-03-08T08:03:47;26.83;;;14.10;;
21611;SDS011;47005;52.292;13.452;2024-03-08T08:06:14;25.07;;;12.57;;
21611;SDS011;47005;52.292;13.452;2024-03-08T08:08:43;29.10;;;14.77;;
21611;SDS011;47005;52.292;13.452;2024-03-08T08:11:09;30.80;;;15.07;;
21611;SDS011;47005;52.292;13.452;2024-03-08T08:13:36;29.37;;;15.40;;
21611;SDS011;47005;52.292;13.452;2024-03-08T08:16:05;25.83;;;14.40;;
21611;SDS011;47005;52.292;13.452;2024-03-08T08:18:31;26.40;;;15.47;;
21611;SDS011;47005;52.292;13.452;2024-03-08T08:20:58;32.10;;;16.13;;
21611;SDS011;47005;52.292;13.452;2024-03-08T08:23:27;22.63;;;13.53;;
21611;SDS011;47005;52.292;13.452;2024-03-08T08:25:52;27.20;;;14.80;;
21611;SDS011;47005;52.292;13.452;2024-03-08T08:28:18;26.67;;;15.87;;
21611;SDS011;47005;52.292;13.452;2024-03-08T08:30:44;27.70;;;13.07;;
21611;SDS011;47005;52.292;13.452;2024-03-08T08:33:10;27.63;;;12.43;;
21611;SDS011;47005;52.292;13.452;2024-03-08T08:35:36;32.40;;;15.60;;
21611;SDS011;47005;52.292;13.452;2024-03-08T08:38:05;24.10;;;15.00;;
21611;SDS011;47005;52.292;13.452;2024-03-08T08:40:33;28.57;;;13.50;;
21611;SDS011;47005;52.292;13.452;2024-03-08T08:43:00;29.33;;;14.30;;
21611;SDS011;47005;52.292;13.452;2024-03-08T08:45:29;26.73;;;13.37;;
21611;SDS011;47005;52.292;13.452;2024-03-08T08:47:55;27.87;;;12.87;;
21611;SDS011;47005;52.292;13.452;2024-03-08T08:50:21;27.50;;;16.50;;
21611;SDS011;47005;52.292;13.452;2024-03-08T08:52:51;23.03;;;13.23;;
21611;SDS011;47005;52.292;13.452;2024-03-08T08:55:18;22.10;;;12.47;;
21611;SDS011;47005;52.292;13.452;2024-03-08T08:57:46;26.37;;;14.70;;
21611;SDS011;47005;52.292;13.452;2024-03-08T09:00:12;22.17;;;13.70;;
21611;SDS011;47005;52.292;13.452;2024-03-08T09:02:40;22.30;;;11.93;;
21611;SDS011;47005;52.292;13.452;2024-03-08T09:05:07;25.23;;;13.93;;
21611;SDS011;47005;52.292;13.452;2024-03-08T09:07:45;24.97;;;13.17;;
21611;SDS011;47005;52.292;13.452;2024-03-08T09:10:10;21.10;;;10.80;;
21611;SDS011;47005;52.292;13.452;2024-03-08T09:12:38;26.73;;;12.87;;
21611;SDS011;47005;52.292;13.452;2024-03-08T09:15:04;30.70;;;13.43;;
21611;SDS011;47005;52.292;13.452;2024-03-08T09:17:38;25.27;;;12.13;;
21611;SDS011;47005;52.292;13.452;2024-03-08T09:20:05;27.27;;;13.63;;
21611;SDS011;47005;52.292;13.452;2024-03-08T09:22:32;20.10;;;13.07;;
21611;SDS011;47005;52.292;13.452;2024-03-08T09:24:57;24.73;;;13.13;;
21611;SDS011;47005;52.292;13.452;2024-03-08T09:27:23;22.50;;;12.93;;
21611;SDS011;47005;52.292;13.452;2024-03-08T09:29:49;22.73;;;13.43;;
21611;SDS011;47005;52.292;13.452;2024-03-08T09:32:14;21.17;;;12.33;;
21611;SDS011;47005;52.292;13.452;2024-03-08T09:34:40;22.67;;;12.67;;
21611;SDS011;47005;52.292;13.452;2024-03-08T09:37:06;19.13;;;11.83;;
21611;SDS011;47005;52.292;13.452;2024-03-08T09:39:33;24.13;;;13.37;;
21611;SDS011;47005;52.292;13.452;2024-03-08T09:41:59;24.43;;;12.80;;
21611;SDS011;47005;52.292;13.452;2024-03-08T09:44:25;21.17;;;11.63;;
21611;SDS011;47005;52.292;13.452;2024-03-08T09:46:53;24.23;;;13.30;;
21611;SDS011;47005;52.292;13.452;2024-03-08T09:49:20;18.37;;;10.73;;
21611;SDS011;47005;52.292;13.452;2024-03-08T09:51:46;21.70;;;12.77;;
21611;SDS011;47005;52.292;13.452;2024-03-08T09:54:12;13.70;;;7.10;;
21611;SDS011;47005;52.292;13.452;2024-03-08T09:56:39;21.07;;;12.37;;
21611;SDS011;47005;52.292;13.452;2024-03-08T09:59:06;22.67;;;11.83;;
21611;SDS011;47005;52.292;13.452;2024-03-08T10:01:35;21.83;;;12.20;;
21611;SDS011;47005;52.292;13.452;2024-03-08T10:04:01;25.27;;;11.20;;
21611;SDS011;47005;52.292;13.452;2024-03-08T10:06:27;21.83;;;12.07;;
21611;SDS011;47005;52.292;13.452;2024-03-08T10:08:53;22.20;;;12.50;;
21611;SDS011;47005;52.292;13.452;2024-03-08T10:11:19;22.83;;;10.47;;
21611;SDS011;47005;52.292;13.452;2024-03-08T10:13:45;20.97;;;11.47;;
21611;SDS011;47005;52.292;13.452;2024-03-08T10:16:12;23.53;;;12.80;;
21611;SDS011;47005;52.292;13.452;2024-03-08T10:18:38;20.53;;;12.90;;
21611;SDS011;47005;52.292;13.452;2024-03-08T10:21:07;23.03;;;12.37;;
21611;SDS011;47005;52.292;13.452;2024-03-08T10:23:35;17.47;;;9.60;;
21611;SDS011;47005;52.292;13.452;2024-03-08T10:26:15;20.60;;;11.53;;
21611;SDS011;47005;52.292;13.452;2024-03-08T10:28:44;18.17;;;11.57;;
21611;SDS011;47005;52.292;13.452;2024-03-08T10:31:12;22.00;;;9.80;;
21611;SDS011;47005;52.292;13.452;2024-03-08T10:33:42;16.03;;;9.50;;
21611;SDS011;47005;52.292;13.452;2024-03-08T10:36:09;18.33;;;9.87;;
21611;SDS011;47005;52.292;13.452;2024-03-08T10:38:39;21.93;;;11.50;;
21611;SDS011;47005;52.292;13.452;2024-03-08T10:41:09;17.97;;;11.00;;
21611;SDS011;47005;52.292;13.452;2024-03-08T10:43:45;17.57;;;10.60;;
21611;SDS011;47005;52.292;13.452;2024-03-08T10:49:31;29.23;;;12.57;;
21611;SDS011;47005;52.292;13.452;2024-03-08T10:52:04;22.87;;;10.73;;
21611;SDS011;47005;52.292;13.452;2024-03-08T10:54:33;20.63;;;10.90;;
21611;SDS011;47005;52.292;13.452;2024-03-08T10:57:03;17.37;;;9.80;;
21611;SDS011;47005;52.292;13.452;2024-03-08T10:59:31;22.17;;;11.97;;
21611;SDS011;47005;52.292;13.452;2024-03-08T11:01:58;20.90;;;11.47;;
21611;SDS011;47005;52.292;13.452;2024-03-08T11:04:25;23.67;;;12.40;;
21611;SDS011;47005;52.292;13.452;2024-03-08T11:06:51;22.23;;;11.17;;
21611;SDS011;47005;52.292;13.452;2024-03-08T11:09:27;19.67;;;10.80;;
21611;SDS011;47005;52.292;13.452;2024-03-08T11:12:40;25.87;;;12.00;;
21611;SDS011;47005;52.292;13.452;2024-03-08T11:14:47;19.73;;;10.20;;
21611;SDS011;47005;52.292;13.452;2024-03-08T11:19:57;16.93;;;10.93;;
21611;SDS011;47005;52.292;13.452;2024-03-08T11:22:27;18.50;;;11.97;;
21611;SDS011;47005;52.292;13.452;2024-03-08T11:25:01;19.60;;;10.70;;
21611;SDS011;47005;52.292;13.452;2024-03-08T11:27:28;19.23;;;10.63;;
21611;SDS011;47005;52.292;13.452;2024-03-08T11:29:59;24.47;;;11.37;;
21611;SDS011;47005;52.292;13.452;2024-03-08T11:32:35;16.37;;;9.57;;
21611;SDS011;47005;52.292;13.452;2024-03-08T11:35:03;20.13;;;11.73;;
21611;SDS011;47005;52.292;13.452;2024-03-08T11:37:33;19.63;;;9.70;;
21611;SDS011;47005;52.292;13.452;2024-03-08T11:40:00;21.03;;;11.20;;
21611;SDS011;47005;52.292;13.452;2024-03-08T11:42:27;18.70;;;10.47;;
21611;SDS011;47005;52.292;13.452;2024-03-08T11:44:53;18.57;;;10.70;;
21611;SDS011;47005;52.292;13.452;2024-03-08T11:47:19;15.63;;;8.73;;
21611;SDS011;47005;52.292;13.452;2024-03-08T11:49:46;19.53;;;9.93;;
21611;SDS011;47005;52.292;13.452;2024-03-08T11:52:13;14.13;;;9.30;;
21611;SDS011;47005;52.292;13.452;2024-03-08T11:54:41;19.03;;;11.27;;
21611;SDS011;47005;52.292;13.452;2024-03-08T11:57:08;13.37;;;8.23;;
21611;SDS011;47005;52.292;13.452;2024-03-08T11:59:35;18.13;;;9.23;;
21611;SDS011;47005;52.292;13.452;2024-03-08T12:02:06;16.37;;;8.37;;
21611;SDS011;47005;52.292;13.452;2024-03-08T12:04:35;15.93;;;8.77;;
21611;SDS011;47005;52.292;13.452;2024-03-08T12:07:01;16.27;;;9.37;;
21611;SDS011;47005;52.292;13.452;2024-03-08T12:09:33;14.53;;;9.50;;
21611;SDS011;47005;52.292;13.452;2024-03-08T12:12:01;14.83;;;8.70;;
21611;SDS011;47005;52.292;13.452;2024-03-08T12:14:28;15.47;;;9.67;;
21611;SDS011;47005;52.292;13.452;2024-03-08T12:16:54;17.27;;;9.70;;
21611;SDS011;47005;52.292;13.452;2024-03-08T12:19:19;13.47;;;8.30;;
21611;SDS011;47005;52.292;13.452;2024-03-08T12:21:45;18.67;;;9.13;;
21611;SDS011;47005;52.292;13.452;2024-03-08T12:24:15;17.43;;;9.83;;
21611;SDS011;47005;52.292;13.452;2024-03-08T12:26:45;18.27;;;9.47;;
21611;SDS011;47005;52.292;13.452;2024-03-08T12:31:48;20.40;;;10.40;;
21611;SDS011;47005;52.292;13.452;2024-03-08T12:34:16;17.17;;;9.70;;
21611;SDS011;47005;52.292;13.452;2024-03-08T12:36:48;16.53;;;8.50;;
21611;SDS011;47005;52.292;13.452;2024-03-08T12:39:17;14.97;;;10.40;;
21611;SDS011;47005;52.292;13.452;2024-03-08T12:41:47;15.77;;;9.67;;
21611;SDS011;47005;52.292;13.452;2024-03-08T12:44:14;16.23;;;9.30;;
21611;SDS011;47005;52.292;13.452;2024-03-08T12:46:40;22.67;;;10.03;;
21611;SDS011;47005;52.292;13.452;2024-03-08T12:49:08;16.77;;;10.73;;
21611;SDS011;47005;52.292;13.452;2024-03-08T12:51:35;22.07;;;11.40;;
21611;SDS011;47005;52.292;13.452;2024-03-08T12:54:02;19.77;;;10.17;;
21611;SDS011;47005;52.292;13.452;2024-03-08T12:56:28;18.23;;;9.30;;
21611;SDS011;47005;52.292;13.452;2024-03-08T12:58:55;13.87;;;9.80;;
21611;SDS011;47005;52.292;13.452;2024-03-08T13:01:21;15.87;;;9.80;;
21611;SDS011;47005;52.292;13.452;2024-03-08T13:03:47;13.37;;;8.17;;
21611;SDS011;47005;52.292;13.452;2024-03-08T13:06:14;15.50;;;10.03;;
21611;SDS011;47005;52.292;13.452;2024-03-08T13:08:41;15.57;;;9.00;;
21611;SDS011;47005;52.292;13.452;2024-03-08T13:11:09;11.40;;;7.90;;
21611;SDS011;47005;52.292;13.452;2024-03-08T13:13:39;13.00;;;9.10;;
21611;SDS011;47005;52.292;13.452;2024-03-08T13:16:05;15.60;;;8.00;;
21611;SDS011;47005;52.292;13.452;2024-03-08T13:18:33;17.27;;;8.43;;
21611;SDS011;47005;52.292;13.452;2024-03-08T13:20:59;19.33;;;11.93;;
21611;SDS011;47005;52.292;13.452;2024-03-08T13:23:30;19.93;;;11.10;;
21611;SDS011;47005;52.292;13.452;2024-03-08T13:25:55;14.80;;;8.73;;
21611;SDS011;47005;52.292;13.452;2024-03-08T13:28:22;15.77;;;8.80;;
21611;SDS011;47005;52.292;13.452;2024-03-08T13:30:53;20.23;;;10.07;;
21611;SDS011;47005;52.292;13.452;2024-03-08T13:33:18;16.27;;;8.93;;
21611;SDS011;47005;52.292;13.452;2024-03-08T13:35:45;15.70;;;8.80;;
21611;SDS011;47005;52.292;13.452;2024-03-08T13:38:11;17.03;;;10.47;;
21611;SDS011;47005;52.292;13.452;2024-03-08T13:40:38;13.60;;;9.27;;
21611;SDS011;47005;52.292;13.452;2024-03-08T13:43:05;15.70;;;9.17;;
21611;SDS011;47005;52.292;13.452;2024-03-08T13:45:35;14.80;;;7.53;;
21611;SDS011;47005;52.292;13.452;2024-03-08T13:48:03;11.03;;;7.17;;
21611;SDS011;47005;52.292;13.452;2024-03-08T13:50:32;16.03;;;8.00;;
21611;SDS011;47005;52.292;13.452;2024-03-08T13:52:57;16.13;;;7.77;;
21611;SDS011;47005;52.292;13.452;2024-03-08T13:55:23;12.80;;;8.10;;
21611;SDS011;47005;52.292;13.452;2024-03-08T13:57:52;14.20;;;8.37;;
21611;SDS011;47005;52.292;13.452;2024-03-08T14:00:18;13.47;;;8.20;;
21611;SDS011;47005;52.292;13.452;2024-03-08T14:02:47;12.80;;;8.43;;
21611;SDS011;47005;52.292;13.452;2024-03-08T14:05:13;13.70;;;8.23;;
21611;SDS011;47005;52.292;13.452;2024-03-08T14:07:41;13.00;;;8.67;;
21611;SDS011;47005;52.292;13.452;2024-03-08T14:10:07;15.63;;;9.17;;
21611;SDS011;47005;52.292;13.452;2024-03-08T14:12:34;12.70;;;8.00;;
21611;SDS011;47005;52.292;13.452;2024-03-08T14:15:01;16.37;;;7.87;;
21611;SDS011;47005;52.292;13.452;2024-03-08T14:17:27;16.33;;;9.10;;
21611;SDS011;47005;52.292;13.452;2024-03-08T14:19:56;12.87;;;8.20;;
21611;SDS011;47005;52.292;13.452;2024-03-08T14:22:21;16.47;;;8.77;;